Karel Barak

Olheiro - Sparta Prague
4 Dez 2028
Segunda-feira
Processo

Personalidade

Adaptabilidade (6) Ambição (13) Controvérsia (12) Lealdade (3) Pressão (5) Profissionalismo (1) Espírito Esportivo (8) Temperamento (12)

Perfil

Estilo de Treinamento Democrático
Licença Continental C
Determinação 12
Gestão de Pessoas 10
Motivação 9
Disciplina 8
Satisfação no Trabalho
100%
Fadiga
0%
Função Olheiro
Salário 96.2K p/s
Contrato 14.03.2029

Desempenho

Comportamento Bom
Eficácia do Treinamento
45%
Desenvolvimento do Jogador
65%
Prevenção de Lesões
35%
Implementação Tática
40%

Eventos Recentes

Participou de uma reunião de recrutamento agora
Recomendou um alvo de transferência agora
Recomendou um alvo de transferência agora
Avaliou um jogador agora
Avaliou um jogador agora
Avaliou um jogador agora
Avaliou um jogador agora
Observou uma partida agora

Monitorando agora

87
Jogador Clube Status Habilidade Confiança Observado Última observação Último voto
Honest Ahanor Atalanta Ativo 141 / 135 40% 3 03.12.2028 -
Matías Satas Grimsby Town Ativo 109 / 112 40% 2 03.12.2028 -
Rafael Mota Sporting CP Ativo 120 / 124 40% 1 03.12.2028 -
Giovanni Leoni Lincoln City Ativo 150 / 143 40% 4 02.12.2028 -
Tyler Fletcher Rotherham United Ativo 118 / 127 40% 1 02.12.2028 -
Salvador Blopá Wolverhampton Ativo 129 / 118 40% 1 02.12.2028 -
Ryan McAidoo Oldham Athletic Ativo 127 / 146 40% 3 01.12.2028 -
Mateus Mané Burnley Ativo 144 / 145 40% 2 01.12.2028 -
Jacob Peter Hödl Sturm Graz Ativo 132 / 129 40% 1 01.12.2028 -
Joel Ezra Enyimba Ativo 100 / 106 40% 5 30.11.2028 -
Davinchi Getafe Ativo 129 / 132 40% 2 30.11.2028 -
Louis Page Leicester City Ativo 132 / 152 40% 1 30.11.2028 -
Peyton Miller New England Revolution Ativo 110 / 123 40% 4 28.11.2028 -
Lisandro Piñero Banfield Ativo 126 / 136 40% 6 28.11.2028 -
Mateo Aguiar Tigre Ativo 118 / 109 40% 2 28.11.2028 -
Alex Verón Vélez Ativo 113 / 120 40% 3 28.11.2028 -
Martim Cunha Porto Ativo 111 / 125 40% 1 28.11.2028 -
Chris Rigg West Ham United Ativo 139 / 152 40% 4 27.11.2028 -
Lionel Jara Central Córdoba SdE Ativo 99 / 110 40% 5 27.11.2028 -
Jay Robinson Everton Ativo 134 / 140 40% 1 27.11.2028 -
Lucca São Paulo Ativo 123 / 113 40% 2 26.11.2028 -
Shea Lacey Crystal Palace Ativo 136 / 152 40% 1 26.11.2028 -
André Miranda Porto Ativo 125 / 129 40% 1 26.11.2028 -
Veljko Milosavljević Bournemouth Ativo 152 / 141 40% 4 24.11.2028 -
Trey Nyoni Rotherham United Ativo 145 / 155 40% 7 24.11.2028 -
Josh King Newcastle United Ativo 148 / 163 40% 1 23.11.2028 -
Jack Shorrock Port Vale Ativo 104 / 103 40% 1 23.11.2028 -
Bienvenue Kanakimana Zbrojovka Brno Ativo 131 / 131 42% 1 / 1m 22.11.2028 -
Luis Otávio Orlando City Ativo 116 / 119 40% 2 21.11.2028 -
Celías Ingenthron Platense Ativo 118 / 120 40% 2 21.11.2028 -
Máximo Munarriz San Telmo Ativo 103 / 109 40% 2 19.11.2028 -
Riquelme Thompson-Jones Accrington Stanley Ativo 113 / 124 40% 1 19.11.2028 -
José Neto Benfica Ativo 126 / 120 40% 1 19.11.2028 -
Lucas Jetten MC Alger Ativo 127 / 124 40% 1 18.11.2028 -
Daniel Banjaqui Benfica Ativo 129 / 122 40% 1 18.11.2028 -
Johan Solstad-Nøis Tromso Ativo 94 / 109 40% 2 17.11.2028 -
Harrison Armstrong Ipswich Town Ativo 142 / 138 40% 1 16.11.2028 -
Felipe Varela Trujillanos Ativo 94 / 87 40% 1 16.11.2028 -
Nejc Brekalo NK Domzale Ativo 107 / 113 40% 1 12.11.2028 -
Diego León Rotherham United Ativo 124 / 131 40% 2 11.11.2028 -
Matías Arias Vélez Ativo 117 / 130 40% 2 11.11.2028 -
Santiago Segovia Rosario Central Ativo 110 / 124 40% 1 11.11.2028 -
Nejc Viher NK Maribor Ativo 121 / 121 40% 1 11.11.2028 -
Tahiel Peralta Racing Club Ativo 115 / 113 40% 2 07.11.2028 -
Nicolás Nagel Colón Ativo 91 / 103 40% 3 07.11.2028 -
Isaque Obolon Ativo 132 / 137 40% 1 07.11.2028 -
Fletcher Boyd Accrington Stanley Ativo 106 / 117 40% 1 03.11.2028 -
Babis Kostoulas Oxford United Ativo 152 / 139 40% 2 02.11.2028 -
Markus Wæhler Lillestrom Ativo 108 / 108 40% 1 02.11.2028 -
Sean Steur Rotherham United Ativo 130 / 134 40% 2 30.10.2028 -
Ibrahim Mbaye Queens Park Rangers Ativo 142 / 141 40% 1 30.10.2028 -
Mateo Lizondo Colón Ativo 95 / 112 40% 2 28.10.2028 -
Geovany Quenda Watford Ativo 150 / 148 40% 1 23.10.2028 -
Gideon Manaseh Ikorodu City Ativo 93 / 93 40% 2 21.10.2028 -
Christos Mouzakitis Hull City Ativo 142 / 152 40% 5 19.10.2028 -
Valentino Huertas Morón Ativo 102 / 108 40% 3 18.10.2028 -
Sayfiddin Sodikov Andijon Ativo 93 / 106 40% 2 17.10.2028 -
Mikey Moore Stockport County Ativo 138 / 157 40% 1 16.10.2028 -
Estêvão Portsmouth Ativo 155 / 157 40% 1 15.10.2028 -
Rio Ngumoha Plymouth Argyle Ativo 142 / 143 40% 1 14.10.2028 -
Romelle Donovan Brentford Ativo 133 / 140 40% 1 12.10.2028 -
Dieguinho Grêmio Ativo 114 / 128 40% 1 12.10.2028 -
Timofey Simanenka Gomel Ativo 98 / 96 40% 1 08.10.2028 -
Henrique Carmo Sochi Ativo 133 / 147 40% 1 07.10.2028 -
Álvaro Montoro Botafogo Ativo 136 / 143 40% 2 06.10.2028 -
Felipe Pujol Vélez Ativo 112 / 121 40% 1 03.10.2028 -
Felipe Obradovich Ferro Carril Oeste Ativo 109 / 101 40% 1 03.10.2028 -
Ayyoub Bouaddi Stoke City Ativo 154 / 161 40% 2 08.09.2028 -
Ayden Heaven Portsmouth Ativo 153 / 154 40% 2 06.09.2028 -
Ronan Kpakio AC Milan Ativo 131 / 136 40% 1 06.09.2028 -
Lautaro Dufur Juventud Ativo 104 / 115 40% 1 04.09.2028 -
Muminhon Bahodirxonov Neftchi Ativo 95 / 101 40% 1 04.09.2028 -
Thijs Kraaijeveld USM Alger Ativo 126 / 122 40% 2 28.08.2028 -
Matej Malenšek Pribram Ativo 126 / 129 42% 1 / 1m 23.08.2028 -
Roberto Medina La Equidad Ativo 90 / 94 40% 1 14.08.2028 -
Augusto Bando Ascoli Ativo 110 / 114 40% 1 14.08.2028 -
Luis Otávio Orlando City Perdido 119 / 134 40% 1 14.08.2028 -
Jan Suchan Jablonec Relatório pronto 112 / 123 86% 1 31.07.2028 -
Patrick Kpozo Banik Ostrava Relatório pronto 113 / 120 86% 1 10.07.2028 -
Filip Kubala Banik Ostrava Relatório pronto 130 / 129 86% 1 03.07.2028 -
Fabijan Krivak Sigma Olomouc Relatório pronto 123 / 121 86% 1 19.06.2028 -
Amin Nabizada Exeter City Ativo 113 / 114 40% 1 19.06.2028 -
Dominik Pleštil Bohemians 1905 Ativo 118 / 112 86% 1 04.06.2028 Aprovar
Konta Ismaily Ativo 95 / 111 40% 1 01.06.2028 -
Alexandr Sojka Viktoria Plzen Ativo 124 / 118 86% 1 01.01.2028 Aprovar
Enzo López AEL Ativo 115 / 115 30% 1 / 1m 17.11.2027 -
Jan Hanuš Jablonec Ativo 124 / 124 42% 1 / 1m 17.02.2027 -